createdAt,value
2022-09-06T00:00:33.783Z,0.00
2022-09-06T00:01:33.769Z,0.00
2022-09-06T00:02:33.791Z,0.00
2022-09-06T00:03:33.802Z,0.00
2022-09-06T00:04:33.768Z,0.00
2022-09-06T00:05:33.700Z,0.00
2022-09-06T00:06:33.687Z,0.00
2022-09-06T00:07:33.680Z,0.00
2022-09-06T00:08:33.672Z,0.00
2022-09-06T00:09:33.640Z,0.00
2022-09-06T00:10:33.624Z,0.00
2022-09-06T00:11:33.608Z,0.00
2022-09-06T00:12:33.591Z,0.00
2022-09-06T00:13:33.593Z,0.00
2022-09-06T00:14:33.560Z,0.00
2022-09-06T00:15:33.586Z,0.00
2022-09-06T00:16:33.535Z,0.00
2022-09-06T00:17:33.514Z,0.00
2022-09-06T00:18:33.538Z,0.00
2022-09-06T00:19:33.505Z,0.00
2022-09-06T00:20:33.485Z,0.00
2022-09-06T00:21:33.458Z,0.00
2022-09-06T00:22:33.433Z,0.00
2022-09-06T00:23:33.428Z,0.00
2022-09-06T00:24:33.424Z,0.00
2022-09-06T00:25:33.393Z,0.00
2022-09-06T00:26:33.390Z,0.00
2022-09-06T00:27:33.357Z,0.00
2022-09-06T00:28:33.346Z,0.00
2022-09-06T00:29:33.323Z,0.00
2022-09-06T00:30:33.304Z,0.00
2022-09-06T00:31:33.346Z,0.00
2022-09-06T00:32:33.273Z,0.00
2022-09-06T00:33:33.281Z,0.00
2022-09-06T00:34:33.250Z,0.00
2022-09-06T00:35:33.227Z,0.00
2022-09-06T00:36:33.211Z,0.00
2022-09-06T00:37:33.200Z,0.00
2022-09-06T00:38:33.181Z,0.00
2022-09-06T00:39:33.215Z,0.00
2022-09-06T00:40:33.148Z,0.00
2022-09-06T00:41:33.136Z,0.00
2022-09-06T00:42:33.115Z,0.00
2022-09-06T00:43:33.136Z,0.00
2022-09-06T00:44:33.085Z,0.00
2022-09-06T00:45:33.068Z,0.00
2022-09-06T00:46:33.099Z,0.00
2022-09-06T00:47:33.040Z,0.00
2022-09-06T00:48:33.027Z,0.00
2022-09-06T00:49:33.024Z,0.00
2022-09-06T00:50:32.989Z,0.00
2022-09-06T00:51:32.969Z,0.00
2022-09-06T00:52:32.954Z,0.00
2022-09-06T00:53:32.938Z,0.00
2022-09-06T00:54:32.943Z,0.00
2022-09-06T00:55:32.909Z,0.00
2022-09-06T00:56:32.892Z,0.00
2022-09-06T00:57:32.871Z,0.00
2022-09-06T00:58:32.860Z,0.00
2022-09-06T00:59:32.843Z,0.00
2022-09-06T01:00:32.848Z,0.00
2022-09-06T01:01:32.911Z,0.00
2022-09-06T01:02:32.920Z,0.00
2022-09-06T01:03:32.775Z,0.00
2022-09-06T01:04:32.764Z,0.00
2022-09-06T01:05:32.752Z,0.00
2022-09-06T01:06:32.750Z,0.00
2022-09-06T01:07:32.717Z,0.00
2022-09-06T01:08:32.717Z,0.00
2022-09-06T01:09:32.677Z,0.00
2022-09-06T01:10:32.684Z,0.00
2022-09-06T01:11:32.660Z,0.00
2022-09-06T01:12:32.640Z,0.00
2022-09-06T01:13:32.619Z,0.00
2022-09-06T01:14:32.615Z,0.00
2022-09-06T01:15:32.636Z,0.00
2022-09-06T01:16:32.564Z,0.00
2022-09-06T01:17:32.569Z,0.00
2022-09-06T01:18:32.534Z,0.00
2022-09-06T01:19:32.515Z,0.00
2022-09-06T01:20:32.496Z,0.00
2022-09-06T01:21:32.492Z,0.00
2022-09-06T01:22:32.473Z,0.00
2022-09-06T01:23:32.472Z,0.00
2022-09-06T01:24:32.432Z,0.00
2022-09-06T01:25:32.419Z,0.00
2022-09-06T01:26:32.405Z,0.00
2022-09-06T01:27:32.411Z,0.00
2022-09-06T01:28:32.402Z,0.00
2022-09-06T01:29:32.352Z,0.00
2022-09-06T01:30:32.334Z,0.00
2022-09-06T01:31:32.327Z,0.00
2022-09-06T01:32:32.310Z,0.00
2022-09-06T01:33:32.316Z,0.00
2022-09-06T01:34:32.277Z,0.00
2022-09-06T01:35:32.254Z,0.00
2022-09-06T01:36:32.230Z,0.00
2022-09-06T01:37:32.220Z,0.00
2022-09-06T01:38:32.196Z,0.00
2022-09-06T01:39:32.311Z,0.00
2022-09-06T01:40:32.162Z,0.00
2022-09-06T01:41:32.151Z,0.00
2022-09-06T01:42:32.127Z,0.00
2022-09-06T01:43:32.114Z,0.00
2022-09-06T01:44:32.093Z,0.00
2022-09-06T01:45:32.102Z,0.00
2022-09-06T01:46:32.106Z,0.00
2022-09-06T01:47:32.054Z,0.00
2022-09-06T01:48:32.033Z,0.00
2022-09-06T01:49:32.016Z,0.00
2022-09-06T01:50:32.015Z,0.00
2022-09-06T01:51:32.002Z,0.00
2022-09-06T01:52:31.964Z,0.00
2022-09-06T01:53:31.947Z,0.00
2022-09-06T01:54:31.947Z,0.00
2022-09-06T01:55:31.913Z,0.00
2022-09-06T01:56:31.915Z,0.00
2022-09-06T01:57:31.876Z,0.00
2022-09-06T01:58:31.864Z,0.00
2022-09-06T01:59:31.847Z,0.00
2022-09-06T02:00:31.833Z,0.00
2022-09-06T02:01:31.874Z,0.00
2022-09-06T02:02:31.858Z,0.00
2022-09-06T02:03:31.783Z,0.00
2022-09-06T02:04:31.763Z,0.00
2022-09-06T02:05:31.746Z,0.00
2022-09-06T02:06:31.727Z,0.00
2022-09-06T02:07:31.747Z,0.00
2022-09-06T02:08:31.697Z,0.00
2022-09-06T02:09:31.673Z,0.00
2022-09-06T02:10:31.661Z,0.00
2022-09-06T02:11:31.646Z,0.00
2022-09-06T02:12:31.635Z,0.00
2022-09-06T02:13:31.646Z,0.00
2022-09-06T02:14:31.607Z,0.00
2022-09-06T02:15:31.577Z,0.00
2022-09-06T02:16:31.648Z,0.00
2022-09-06T02:17:31.617Z,0.00
2022-09-06T02:18:31.528Z,0.00
2022-09-06T02:19:31.530Z,0.00
2022-09-06T02:20:31.510Z,0.00
2022-09-06T02:21:31.481Z,0.00
2022-09-06T02:22:31.474Z,0.00
2022-09-06T02:23:31.438Z,0.00
2022-09-06T02:24:31.446Z,0.00
2022-09-06T02:25:31.407Z,0.00
2022-09-06T02:26:31.394Z,0.00
2022-09-06T02:27:31.374Z,0.00
2022-09-06T02:28:31.357Z,0.00
2022-09-06T02:29:31.359Z,0.00
2022-09-06T02:30:31.397Z,0.00
2022-09-06T02:31:31.309Z,0.00
2022-09-06T02:32:31.296Z,0.00
2022-09-06T02:33:31.291Z,0.00
2022-09-06T02:34:31.258Z,0.00
2022-09-06T02:35:31.284Z,0.00
2022-09-06T02:36:31.225Z,0.00
2022-09-06T02:37:31.205Z,0.00
2022-09-06T02:38:31.194Z,0.00
2022-09-06T02:39:31.197Z,0.00
2022-09-06T02:40:31.159Z,0.00
2022-09-06T02:41:31.158Z,0.00
2022-09-06T02:42:31.126Z,0.00
2022-09-06T02:43:31.130Z,0.00
2022-09-06T02:44:31.091Z,0.00
2022-09-06T02:45:31.077Z,0.00
2022-09-06T02:46:31.091Z,0.00
2022-09-06T02:47:31.076Z,0.00
2022-09-06T02:48:31.027Z,0.00
2022-09-06T02:49:31.012Z,0.00
2022-09-06T02:50:30.990Z,0.00
2022-09-06T02:51:30.975Z,0.00
2022-09-06T02:52:30.959Z,0.00
2022-09-06T02:53:31.062Z,0.00
2022-09-06T02:54:30.942Z,0.00
2022-09-06T02:55:30.908Z,0.00
2022-09-06T02:56:30.884Z,0.00
2022-09-06T02:57:30.879Z,0.00
2022-09-06T02:58:30.860Z,0.00
2022-09-06T02:59:30.851Z,0.00
2022-09-06T03:00:30.820Z,0.00
2022-09-06T03:01:30.864Z,0.00
2022-09-06T03:02:30.837Z,0.00
2022-09-06T03:03:30.779Z,0.00
2022-09-06T03:04:30.807Z,0.00
2022-09-06T03:05:30.742Z,0.00
2022-09-06T03:06:30.717Z,0.00
2022-09-06T03:07:30.701Z,0.00
2022-09-06T03:08:30.684Z,0.00
2022-09-06T03:09:30.670Z,0.00
2022-09-06T03:10:30.667Z,0.00
2022-09-06T03:11:30.631Z,0.00
2022-09-06T03:12:30.614Z,0.00
2022-09-06T03:13:30.608Z,0.00
2022-09-06T03:14:30.617Z,0.00
2022-09-06T03:15:30.567Z,0.00
2022-09-06T03:16:30.582Z,0.00
2022-09-06T03:17:30.539Z,0.00
2022-09-06T03:18:30.512Z,0.00
2022-09-06T03:19:30.503Z,0.00
2022-09-06T03:20:35.047Z,0.00
2022-09-06T03:21:30.459Z,0.00
2022-09-06T03:22:30.455Z,0.00
2022-09-06T03:23:30.448Z,0.00
2022-09-06T03:24:30.413Z,0.00
2022-09-06T03:25:30.394Z,0.00
2022-09-06T03:26:30.385Z,0.00
2022-09-06T03:27:30.389Z,0.00
2022-09-06T03:28:30.349Z,0.00
2022-09-06T03:29:30.327Z,0.00
2022-09-06T03:30:30.328Z,0.00
2022-09-06T03:31:30.295Z,0.00
2022-09-06T03:32:30.278Z,0.00
2022-09-06T03:33:30.282Z,0.00
2022-09-06T03:34:30.263Z,0.00
2022-09-06T03:35:30.226Z,0.00
2022-09-06T03:36:30.218Z,0.00
2022-09-06T03:37:30.221Z,0.00
2022-09-06T03:38:30.174Z,0.00
2022-09-06T03:39:30.213Z,0.00
2022-09-06T03:40:30.148Z,0.00
2022-09-06T03:41:30.131Z,0.00
2022-09-06T03:42:30.124Z,0.00
2022-09-06T03:43:30.093Z,0.00
2022-09-06T03:44:30.107Z,0.00
2022-09-06T03:45:30.094Z,0.00
2022-09-06T03:46:30.045Z,0.00
2022-09-06T03:47:30.027Z,0.00
2022-09-06T03:48:30.011Z,0.00
2022-09-06T03:49:29.993Z,0.00
2022-09-06T03:50:30.005Z,0.00
2022-09-06T03:51:29.959Z,0.00
2022-09-06T03:52:29.942Z,0.00
2022-09-06T03:53:29.927Z,0.00
2022-09-06T03:54:29.929Z,0.00
2022-09-06T03:55:29.892Z,0.00
2022-09-06T03:56:29.875Z,0.00
2022-09-06T03:57:29.883Z,0.00
2022-09-06T03:58:29.849Z,0.00
2022-09-06T03:59:29.822Z,0.00
2022-09-06T04:00:29.830Z,0.00
2022-09-06T04:01:29.863Z,0.00
2022-09-06T04:02:29.855Z,0.00
2022-09-06T04:03:29.756Z,0.00
2022-09-06T04:04:29.740Z,0.00
2022-09-06T04:05:29.720Z,0.00
2022-09-06T04:06:29.745Z,0.00
2022-09-06T04:07:29.686Z,0.00
2022-09-06T04:08:29.853Z,0.00
2022-09-06T04:09:29.652Z,0.00
2022-09-06T04:10:29.641Z,0.00
2022-09-06T04:11:29.628Z,0.00
2022-09-06T04:12:37.254Z,0.00
2022-09-06T04:13:37.810Z,0.00
2022-09-06T04:14:38.735Z,0.00
2022-09-06T04:15:29.588Z,0.00
2022-09-06T04:16:29.609Z,0.00
2022-09-06T04:17:29.545Z,0.00
2022-09-06T04:18:29.696Z,0.00
2022-09-06T04:19:29.484Z,0.00
2022-09-06T04:20:29.495Z,0.00
2022-09-06T04:21:29.455Z,0.00
2022-09-06T04:22:29.440Z,0.00
2022-09-06T04:23:29.442Z,0.00
2022-09-06T04:24:29.482Z,0.00
2022-09-06T04:28:57.679Z,0.00
2022-09-06T04:31:39.728Z,0.00
2022-09-06T04:32:39.714Z,0.00
2022-09-06T04:35:21.831Z,0.00
2022-09-06T04:36:22.263Z,0.00
2022-09-06T04:37:22.269Z,0.00
2022-09-06T04:40:03.696Z,0.00
2022-09-06T04:41:03.625Z,0.00
2022-09-06T04:42:03.609Z,0.00
2022-09-06T04:43:03.598Z,0.00
2022-09-06T04:44:03.607Z,0.00
2022-09-06T04:45:03.663Z,0.00
2022-09-06T04:47:46.145Z,0.00
2022-09-06T04:48:46.163Z,0.00
2022-09-06T04:49:46.108Z,0.00
2022-09-06T04:50:46.110Z,0.00
2022-09-06T04:51:46.109Z,0.00
2022-09-06T04:52:46.061Z,0.00
2022-09-06T04:53:46.034Z,0.00
2022-09-06T04:54:46.027Z,0.00
2022-09-06T04:55:46.007Z,0.00
2022-09-06T04:56:45.986Z,0.00
2022-09-06T04:57:50.688Z,0.00
2022-09-06T04:58:45.952Z,0.00
2022-09-06T04:59:45.952Z,0.00
2022-09-06T05:00:45.931Z,0.00
2022-09-06T05:01:45.917Z,0.00
2022-09-06T05:02:45.946Z,0.00
2022-09-06T05:03:45.859Z,0.00
2022-09-06T05:04:45.846Z,0.00
2022-09-06T05:05:45.829Z,0.00
2022-09-06T05:06:45.808Z,0.00
2022-09-06T05:07:45.824Z,0.00
2022-09-06T05:08:45.777Z,0.00
2022-09-06T05:09:45.763Z,0.00
2022-09-06T05:10:45.741Z,0.00
2022-09-06T05:11:45.722Z,0.00
2022-09-06T05:12:45.808Z,0.00
2022-09-06T05:13:45.739Z,0.00
2022-09-06T05:14:45.669Z,0.00
2022-09-06T05:15:45.658Z,0.00
2022-09-06T05:16:45.698Z,0.00
2022-09-06T05:17:45.626Z,0.00
2022-09-06T05:18:45.621Z,5.63
2022-09-06T05:19:45.585Z,5.63
2022-09-06T05:20:45.565Z,5.63
2022-09-06T05:21:45.556Z,5.63
2022-09-06T05:22:45.543Z,5.63
2022-09-06T05:23:45.533Z,5.63
2022-09-06T05:24:45.513Z,5.63
2022-09-06T05:25:45.484Z,5.63
2022-09-06T05:26:45.467Z,5.63
2022-09-06T05:27:45.452Z,5.63
2022-09-06T05:28:45.447Z,5.63
2022-09-06T05:29:45.441Z,5.63
2022-09-06T05:30:45.392Z,5.63
2022-09-06T05:31:45.404Z,11.25
2022-09-06T05:32:45.353Z,11.25
2022-09-06T05:33:45.346Z,11.25
2022-09-06T05:34:45.334Z,11.25
2022-09-06T05:35:45.305Z,11.25
2022-09-06T05:36:45.289Z,11.25
2022-09-06T05:37:45.268Z,11.25
2022-09-06T05:38:45.253Z,11.25
2022-09-06T05:39:45.398Z,11.25
2022-09-06T05:40:45.226Z,11.25
2022-09-06T05:41:45.263Z,11.25
2022-09-06T05:42:45.181Z,11.25
2022-09-06T05:43:45.185Z,11.25
2022-09-06T05:44:45.167Z,11.25
2022-09-06T05:45:45.175Z,11.25
2022-09-06T05:46:45.138Z,11.25
2022-09-06T05:47:45.093Z,11.25
2022-09-06T05:48:45.082Z,11.25
2022-09-06T05:49:45.059Z,11.25
2022-09-06T05:50:45.094Z,11.25
2022-09-06T05:51:45.026Z,11.25
2022-09-06T05:52:45.016Z,11.25
2022-09-06T05:53:44.992Z,11.25
2022-09-06T05:54:44.980Z,11.25
2022-09-06T05:55:44.959Z,11.25
2022-09-06T05:56:44.989Z,11.25
2022-09-06T05:57:44.922Z,16.88
2022-09-06T05:58:44.912Z,16.88
2022-09-06T05:59:44.886Z,16.88
2022-09-06T06:00:44.869Z,16.88
2022-09-06T06:01:44.960Z,16.88
2022-09-06T06:02:44.908Z,16.88
2022-09-06T06:03:44.816Z,16.88
2022-09-06T06:04:44.818Z,16.88
2022-09-06T06:05:44.791Z,16.88
2022-09-06T06:06:44.764Z,16.88
2022-09-06T06:07:44.767Z,16.88
2022-09-06T06:08:44.734Z,16.88
2022-09-06T06:09:44.719Z,16.88
2022-09-06T06:10:44.714Z,16.88
2022-09-06T06:11:44.694Z,16.88
2022-09-06T06:12:44.806Z,16.88
2022-09-06T06:13:44.654Z,16.88
2022-09-06T06:14:44.626Z,16.88
2022-09-06T06:15:44.620Z,16.88
2022-09-06T06:16:44.624Z,16.88
2022-09-06T06:17:44.573Z,16.88
2022-09-06T06:18:47.624Z,16.88
2022-09-06T06:19:44.560Z,16.88
2022-09-06T06:20:44.525Z,16.88
2022-09-06T06:21:44.509Z,16.88
2022-09-06T06:22:44.508Z,16.88
2022-09-06T06:23:44.470Z,16.88
2022-09-06T06:24:44.459Z,16.88
2022-09-06T06:25:44.436Z,16.88
2022-09-06T06:26:44.456Z,16.88
2022-09-06T06:27:44.398Z,16.88
2022-09-06T06:28:44.409Z,16.88
2022-09-06T06:29:44.369Z,16.88
2022-09-06T06:30:44.353Z,16.88
2022-09-06T06:31:44.376Z,16.88
2022-09-06T06:32:44.325Z,16.88
2022-09-06T06:33:44.344Z,16.88
2022-09-06T06:34:44.283Z,16.88
2022-09-06T06:35:44.285Z,16.88
2022-09-06T06:36:44.247Z,16.88
2022-09-06T06:37:44.228Z,16.88
2022-09-06T06:38:44.235Z,16.88
2022-09-06T06:39:44.227Z,16.88
2022-09-06T06:40:44.182Z,16.88
2022-09-06T06:41:44.176Z,22.50
2022-09-06T06:42:44.146Z,22.50
2022-09-06T06:43:44.144Z,22.50
2022-09-06T06:44:44.129Z,22.50
2022-09-06T06:45:44.145Z,22.50
2022-09-06T06:46:44.076Z,22.50
2022-09-06T06:47:44.093Z,22.50
2022-09-06T06:48:44.041Z,22.50
2022-09-06T06:49:44.048Z,22.50
2022-09-06T06:50:44.011Z,22.50
2022-09-06T06:51:43.991Z,22.50
2022-09-06T06:52:43.994Z,22.50
2022-09-06T06:53:43.961Z,22.50
2022-09-06T06:54:43.942Z,22.50
2022-09-06T06:55:43.928Z,22.50
2022-09-06T06:56:43.917Z,22.50
2022-09-06T06:57:43.901Z,22.50
2022-09-06T06:58:43.897Z,22.50
2022-09-06T06:59:43.860Z,22.50
2022-09-06T07:00:44.016Z,22.50
2022-09-06T07:01:43.914Z,22.50
2022-09-06T07:02:43.834Z,22.50
2022-09-06T07:03:43.792Z,22.50
2022-09-06T07:04:43.794Z,22.50
2022-09-06T07:06:13.269Z,22.50
2022-09-06T07:07:43.733Z,22.50
2022-09-06T07:08:43.708Z,22.50
2022-09-06T07:10:43.672Z,22.50
2022-09-06T07:11:43.678Z,22.50
2022-09-06T07:12:43.654Z,22.50
2022-09-06T07:13:43.628Z,22.50
2022-09-06T07:14:43.625Z,22.50
2022-09-06T07:15:43.595Z,28.13
2022-09-06T07:16:43.688Z,22.50
2022-09-06T07:17:43.558Z,28.13
2022-09-06T07:18:43.543Z,22.50
2022-09-06T07:21:43.489Z,22.50
2022-09-06T07:22:43.489Z,22.50
2022-09-06T07:24:13.363Z,22.50
2022-09-06T07:24:43.456Z,22.50
2022-09-06T07:25:43.461Z,22.50
2022-09-06T07:27:46.503Z,28.13
2022-09-06T07:28:43.576Z,28.13
2022-09-06T07:29:43.356Z,28.13
2022-09-06T07:30:43.355Z,28.13
2022-09-06T07:32:13.280Z,28.13
2022-09-06T07:32:43.308Z,28.13
2022-09-06T07:33:43.292Z,28.13
2022-09-06T07:34:43.326Z,28.13
2022-09-06T07:35:43.255Z,28.13
2022-09-06T07:36:43.240Z,28.13
2022-09-06T07:37:43.226Z,28.13
2022-09-06T07:38:43.209Z,28.13
2022-09-06T07:39:43.277Z,28.13
2022-09-06T07:40:43.198Z,28.13
2022-09-06T07:41:43.200Z,28.13
2022-09-06T07:42:43.147Z,28.13
2022-09-06T07:43:43.126Z,28.13
2022-09-06T07:44:43.112Z,28.13
2022-09-06T07:45:43.098Z,28.13
2022-09-06T07:46:43.229Z,28.13
2022-09-06T07:47:58.861Z,28.13
2022-09-06T07:48:43.054Z,28.13
2022-09-06T07:51:42.998Z,28.13
2022-09-06T07:53:42.965Z,28.13
2022-09-06T07:54:42.949Z,28.13
2022-09-06T07:55:42.947Z,28.13
2022-09-06T07:56:42.939Z,28.13
2022-09-06T07:57:42.904Z,28.13
2022-09-06T07:58:42.881Z,28.13
2022-09-06T07:59:43.086Z,28.13
2022-09-06T08:00:42.908Z,28.13
2022-09-06T08:01:42.906Z,28.13
2022-09-06T08:02:42.834Z,28.13
2022-09-06T08:03:42.809Z,28.13
2022-09-06T08:04:42.786Z,28.13
2022-09-06T08:06:11.238Z,28.13
2022-09-06T08:07:42.761Z,28.13
2022-09-06T08:08:58.648Z,33.75
2022-09-06T08:11:24.704Z,33.75
2022-09-06T08:12:24.690Z,33.75
2022-09-06T08:13:24.675Z,33.75
2022-09-06T08:14:24.687Z,33.75
2022-09-06T08:15:24.646Z,33.75
2022-09-06T08:16:24.648Z,33.75
2022-09-06T08:17:24.607Z,33.75
2022-09-06T08:18:24.618Z,33.75
2022-09-06T08:19:24.597Z,33.75
2022-09-06T08:20:24.593Z,33.75
2022-09-06T08:21:24.550Z,33.75
2022-09-06T08:22:24.548Z,33.75
2022-09-06T08:23:24.516Z,33.75
2022-09-06T08:24:24.514Z,33.75
2022-09-06T08:25:24.485Z,33.75
2022-09-06T08:26:24.478Z,33.75
2022-09-06T08:27:24.451Z,33.75
2022-09-06T08:28:26.861Z,33.75
2022-09-06T08:29:24.442Z,33.75
2022-09-06T08:30:24.419Z,33.75
2022-09-06T08:31:24.462Z,33.75
2022-09-06T08:32:24.382Z,33.75
2022-09-06T08:33:24.357Z,39.38
2022-09-06T08:34:24.357Z,39.38
2022-09-06T08:35:24.336Z,39.38
2022-09-06T08:36:24.336Z,39.38
2022-09-06T08:37:25.200Z,39.38
2022-09-06T08:38:24.283Z,39.38
2022-09-06T08:39:24.327Z,39.38
2022-09-06T08:40:24.255Z,39.38
2022-09-06T08:41:24.251Z,45.00
2022-09-06T08:42:24.222Z,45.00
2022-09-06T08:43:24.245Z,45.00
2022-09-06T08:45:24.187Z,45.00
2022-09-06T08:46:24.225Z,45.00
2022-09-06T08:47:24.165Z,45.00
2022-09-06T08:48:24.181Z,45.00
2022-09-06T08:49:24.125Z,50.63
2022-09-06T08:50:24.099Z,50.63
2022-09-06T08:51:24.092Z,56.25
2022-09-06T08:52:24.080Z,61.88
2022-09-06T08:53:24.047Z,61.88
2022-09-06T08:54:24.053Z,61.88
2022-09-06T08:55:24.017Z,73.13
2022-09-06T08:56:24.004Z,67.50
2022-09-06T08:57:24.009Z,78.75
2022-09-06T08:58:24.028Z,84.38
2022-09-06T08:59:23.958Z,90.00
2022-09-06T09:00:23.943Z,101.25
2022-09-06T09:01:23.936Z,118.13
2022-09-06T09:02:24.034Z,135.00
2022-09-06T09:03:23.922Z,168.75
2022-09-06T09:04:24.767Z,185.63
2022-09-06T09:05:23.876Z,258.75
2022-09-06T09:06:23.864Z,253.13
2022-09-06T09:07:23.847Z,281.25
2022-09-06T09:08:23.886Z,337.50
2022-09-06T09:09:23.834Z,388.13
2022-09-06T09:10:23.798Z,410.63
2022-09-06T09:11:23.780Z,472.50
2022-09-06T09:12:23.780Z,450.00
2022-09-06T09:13:23.761Z,393.75
2022-09-06T09:14:23.747Z,303.75
2022-09-06T09:15:23.754Z,281.25
2022-09-06T09:16:23.807Z,281.25
2022-09-06T09:17:23.700Z,253.13
2022-09-06T09:18:23.732Z,236.25
2022-09-06T09:19:23.690Z,247.50
2022-09-06T09:20:23.658Z,241.88
2022-09-06T09:21:28.087Z,270.00
2022-09-06T09:22:23.652Z,286.88
2022-09-06T09:23:23.629Z,247.50
2022-09-06T09:24:23.619Z,298.13
2022-09-06T09:25:23.604Z,309.38
2022-09-06T09:26:23.606Z,303.75
2022-09-06T09:27:23.575Z,376.88
2022-09-06T09:28:23.614Z,427.50
2022-09-06T09:29:28.010Z,517.50
2022-09-06T09:30:53.349Z,568.13
2022-09-06T09:31:23.562Z,579.38
2022-09-06T09:32:23.528Z,573.75
2022-09-06T09:33:23.681Z,545.63
2022-09-06T09:34:23.486Z,545.63
2022-09-06T09:35:23.484Z,545.63
2022-09-06T09:36:23.473Z,483.75
2022-09-06T09:38:23.541Z,495.00
2022-09-06T09:39:23.510Z,495.00
2022-09-06T09:40:23.413Z,495.00
2022-09-06T09:41:23.404Z,506.25
2022-09-06T09:42:23.399Z,517.50
2022-09-06T09:43:23.403Z,540.00
2022-09-06T09:44:23.371Z,556.88
2022-09-06T09:45:23.361Z,579.38
2022-09-06T09:46:23.499Z,601.88
2022-09-06T09:47:23.341Z,646.88
2022-09-06T09:48:23.393Z,697.50
2022-09-06T09:49:23.317Z,708.75
2022-09-06T09:50:23.309Z,736.88
2022-09-06T09:51:27.035Z,759.38
2022-09-06T09:52:23.291Z,787.50
2022-09-06T09:53:23.301Z,787.50
2022-09-06T09:54:23.277Z,787.50
2022-09-06T09:55:23.276Z,787.50
2022-09-06T09:56:23.255Z,765.00
2022-09-06T09:57:23.241Z,748.13
2022-09-06T09:58:23.337Z,725.63
2022-09-06T09:59:23.227Z,753.75
2022-09-06T10:00:23.257Z,748.13
2022-09-06T10:01:23.208Z,781.88
2022-09-06T10:02:23.220Z,798.75
2022-09-06T10:03:23.289Z,798.75
2022-09-06T10:05:23.179Z,787.50
2022-09-06T10:07:23.178Z,798.75
2022-09-06T10:08:23.183Z,838.13
2022-09-06T10:09:23.148Z,939.38
2022-09-06T10:10:23.148Z,1029.38
2022-09-06T10:11:23.146Z,1057.50
2022-09-06T10:12:23.148Z,1074.38
2022-09-06T10:13:23.135Z,1063.13
2022-09-06T10:14:23.119Z,1018.13
2022-09-06T10:15:23.125Z,877.50
2022-09-06T10:16:23.180Z,787.50
2022-09-06T10:17:23.094Z,776.25
2022-09-06T10:18:23.131Z,793.13
2022-09-06T10:19:23.086Z,787.50
2022-09-06T10:20:23.088Z,753.75
2022-09-06T10:21:23.073Z,691.88
2022-09-06T10:22:23.066Z,663.75
2022-09-06T10:24:26.215Z,579.38
2022-09-06T10:25:23.052Z,585.00
2022-09-06T10:26:23.046Z,607.50
2022-09-06T10:27:23.037Z,675.00
2022-09-06T10:28:23.141Z,776.25
2022-09-06T10:29:23.024Z,725.63
2022-09-06T10:30:23.014Z,832.50
2022-09-06T10:31:23.049Z,928.13
2022-09-06T10:32:23.002Z,1012.50
2022-09-06T10:33:22.991Z,1035.00
2022-09-06T10:34:23.009Z,1046.25
2022-09-06T10:35:22.984Z,922.50
2022-09-06T10:36:22.976Z,939.38
2022-09-06T10:37:22.987Z,928.13
2022-09-06T10:38:23.032Z,860.63
2022-09-06T10:39:22.957Z,781.88
2022-09-06T10:40:22.953Z,900.00
2022-09-06T10:41:22.951Z,945.00
2022-09-06T10:42:22.955Z,973.13
2022-09-06T10:43:22.929Z,1035.00
2022-09-06T10:44:22.928Z,1074.38
2022-09-06T10:45:22.936Z,1153.13
2022-09-06T10:46:22.956Z,1192.50
2022-09-06T10:47:22.908Z,1226.25
2022-09-06T10:48:22.896Z,1203.75
2022-09-06T10:49:22.935Z,1288.13
2022-09-06T10:50:22.884Z,1299.38
2022-09-06T10:51:22.879Z,1293.75
2022-09-06T10:52:22.876Z,1288.13
2022-09-06T10:53:22.871Z,1260.00
2022-09-06T10:54:22.886Z,1226.25
2022-09-06T10:55:22.859Z,1147.50
2022-09-06T10:56:22.848Z,1141.88
2022-09-06T10:58:22.916Z,1046.25
2022-09-06T10:59:38.793Z,894.38
2022-09-06T11:00:22.831Z,849.38
2022-09-06T11:01:22.890Z,815.63
2022-09-06T11:02:22.983Z,860.63
2022-09-06T11:04:22.825Z,1040.63
2022-09-06T11:05:38.640Z,1170.00
2022-09-06T11:06:25.440Z,1237.50
2022-09-06T11:07:22.779Z,1231.88
2022-09-06T11:09:22.774Z,1136.25
2022-09-06T11:10:22.767Z,950.63
2022-09-06T11:11:22.761Z,871.88
2022-09-06T11:12:22.751Z,849.38
2022-09-06T11:13:22.762Z,821.25
2022-09-06T11:14:22.749Z,843.75
2022-09-06T11:15:22.731Z,888.75
2022-09-06T11:16:22.806Z,810.00
2022-09-06T11:17:22.720Z,646.88
2022-09-06T11:18:22.733Z,545.63
2022-09-06T11:19:22.714Z,511.88
2022-09-06T11:20:22.722Z,495.00
2022-09-06T11:21:22.700Z,483.75
2022-09-06T11:22:22.757Z,489.38
2022-09-06T11:23:22.745Z,511.88
2022-09-06T11:24:22.685Z,748.13
2022-09-06T11:25:22.695Z,939.38
2022-09-06T11:26:22.675Z,905.63
2022-09-06T11:27:22.692Z,753.75
2022-09-06T11:28:22.672Z,444.38
2022-09-06T11:29:22.656Z,405.00
2022-09-06T11:30:22.657Z,399.38
2022-09-06T11:32:22.639Z,393.75
2022-09-06T11:33:22.670Z,388.13
2022-09-06T11:34:22.630Z,388.13
2022-09-06T11:35:22.624Z,382.50
2022-09-06T11:36:22.622Z,382.50
2022-09-06T11:37:22.614Z,365.63
2022-09-06T11:38:22.622Z,348.75
2022-09-06T11:41:22.595Z,326.25
2022-09-06T11:42:22.617Z,326.25
2022-09-06T11:43:22.629Z,320.63
2022-09-06T11:44:22.572Z,320.63
2022-09-06T11:45:22.573Z,320.63
2022-09-06T11:46:22.598Z,320.63
2022-09-06T11:47:22.557Z,410.63
2022-09-06T11:48:22.577Z,416.25
2022-09-06T11:49:22.550Z,315.00
2022-09-06T11:50:22.543Z,331.88
2022-09-06T11:51:22.547Z,326.25
2022-09-06T11:52:22.533Z,444.38
2022-09-06T11:53:22.594Z,635.63
2022-09-06T11:54:22.538Z,500.63
2022-09-06T11:55:23.015Z,348.75
2022-09-06T11:56:22.534Z,348.75
2022-09-06T11:57:22.538Z,337.50
2022-09-06T11:58:22.498Z,315.00
2022-09-06T11:59:22.510Z,303.75
2022-09-06T12:00:22.483Z,292.50
2022-09-06T12:01:22.507Z,292.50
2022-09-06T12:02:22.574Z,320.63
2022-09-06T12:04:22.460Z,444.38
2022-09-06T12:05:22.463Z,663.75
2022-09-06T12:06:22.471Z,461.25
2022-09-06T12:07:22.460Z,444.38
2022-09-06T12:08:22.453Z,393.75
2022-09-06T12:09:22.433Z,360.00
2022-09-06T12:10:22.451Z,309.38
2022-09-06T12:11:22.427Z,275.63
2022-09-06T12:12:22.425Z,292.50
2022-09-06T12:13:22.416Z,270.00
2022-09-06T12:14:22.427Z,264.38
2022-09-06T12:15:22.423Z,270.00
2022-09-06T12:16:22.444Z,405.00
2022-09-06T12:17:22.409Z,579.38
2022-09-06T12:18:22.387Z,1170.00
2022-09-06T12:19:22.382Z,905.63
2022-09-06T12:20:22.405Z,1186.88
2022-09-06T12:21:22.391Z,1254.38
2022-09-06T12:22:22.384Z,416.25
2022-09-06T12:23:22.358Z,489.38
2022-09-06T12:24:22.371Z,466.88
2022-09-06T12:25:22.349Z,376.88
2022-09-06T12:26:22.352Z,405.00
2022-09-06T12:27:22.351Z,455.63
2022-09-06T12:28:22.371Z,405.00
2022-09-06T12:29:22.342Z,230.63
2022-09-06T12:30:22.328Z,646.88
2022-09-06T12:31:22.387Z,787.50
2022-09-06T12:32:22.310Z,703.13
2022-09-06T12:33:22.330Z,933.75
2022-09-06T12:34:22.298Z,601.88
2022-09-06T12:36:22.288Z,95.63
2022-09-06T12:37:22.278Z,168.75
2022-09-06T12:38:22.305Z,1276.88
2022-09-06T12:39:22.258Z,624.38
2022-09-06T12:40:22.261Z,1366.88
2022-09-06T12:41:22.246Z,1445.63
2022-09-06T12:42:22.246Z,1389.38
2022-09-06T12:43:23.952Z,1260.00
2022-09-06T12:44:22.228Z,1451.25
2022-09-06T12:45:27.063Z,1496.25
2022-09-06T12:46:22.247Z,1501.88
2022-09-06T12:47:22.245Z,1473.75
2022-09-06T12:48:22.206Z,1490.63
2022-09-06T12:49:22.191Z,219.38
2022-09-06T12:50:22.184Z,748.13
2022-09-06T12:51:22.215Z,1321.88
2022-09-06T12:52:22.194Z,1378.13
2022-09-06T12:53:23.366Z,1361.25
2022-09-06T12:54:22.191Z,1378.13
2022-09-06T12:55:22.171Z,1350.00
2022-09-06T12:56:22.167Z,1383.75
2022-09-06T12:57:22.157Z,1350.00
2022-09-06T12:58:22.264Z,1316.25
2022-09-06T12:59:22.188Z,1192.50
2022-09-06T13:00:22.133Z,978.75
2022-09-06T13:01:22.254Z,478.13
2022-09-06T13:02:22.309Z,506.25
2022-09-06T13:03:22.095Z,590.63
2022-09-06T13:04:22.099Z,495.00
2022-09-06T13:05:22.080Z,433.13
2022-09-06T13:06:26.645Z,343.13
2022-09-06T13:07:22.071Z,410.63
2022-09-06T13:08:22.062Z,427.50
2022-09-06T13:09:22.076Z,427.50
2022-09-06T13:10:22.039Z,382.50
2022-09-06T13:11:22.039Z,433.13
2022-09-06T13:12:22.027Z,444.38
2022-09-06T13:13:22.022Z,466.88
2022-09-06T13:14:22.012Z,466.88
2022-09-06T13:15:22.026Z,466.88
2022-09-06T13:16:22.073Z,506.25
2022-09-06T13:17:21.994Z,506.25
2022-09-06T13:18:22.068Z,781.88
2022-09-06T13:19:21.989Z,855.00
2022-09-06T13:20:21.980Z,675.00
2022-09-06T13:21:21.963Z,562.50
2022-09-06T13:22:21.965Z,528.75
2022-09-06T13:23:21.950Z,438.75
2022-09-06T13:24:21.963Z,348.75
2022-09-06T13:25:21.954Z,320.63
2022-09-06T13:26:21.930Z,309.38
2022-09-06T13:27:21.923Z,303.75